Skip to Main Content
SEARCH:
Location Air RH Dwp Precip Type Wind Speed Wind Gust Direction Pavement Temperature Date/Time
Hatem Bridge US 40 E/B 45 46 25 None 24 mph 27 mph N 56 - 56 11/17/2017 12:08:00 PM
I-270 at I-370 48 45 27 None Calm 5 mph W 59 - 68 11/17/2017 12:05:00 PM
I-270 at MD-109 49 47 30 None 8 mph 14 mph SW 61 - 63 11/17/2017 12:05:00 PM
I-495 at American Legion Bridge 51 41 28 None 4 mph 13 mph NW 65 - 66 11/17/2017 12:05:00 PM
I-68 at MD-219 37 70 28 None 6 mph 12 mph W 49 - 53 11/17/2017 12:05:00 PM
I-68 at Savage Mt 39 59 26 None Calm 8 mph N 54 - 56 11/17/2017 12:05:00 PM
I-68 at Sideling Hill 45 50 27 None 7 mph 16 mph N 64 - 65 11/17/2017 12:05:00 PM
I-68 at WV Line 39 59 26 None 6 mph 11 mph NW 49 - 52 11/17/2017 12:05:00 PM
I-695 at I-83 48 43 27 None 8 mph 17 mph NW 56 - 62 11/17/2017 12:05:00 PM
I-70 at Fred-Wash Co. 43 54 28 None 4 mph 10 mph W 58 - 64 11/17/2017 12:05:00 PM
I-70 at I-695 47 47 28 None 5 mph 18 mph W 55 - 64 11/17/2017 12:05:00 PM
I-70 at I-81 - - - No Data Available - - No Data Available -
I-70 at MD-27 47 48 29 None Calm 7 mph NE 63 - 66 11/17/2017 12:05:00 PM
I-70 at MD-32 46 47 27 None 5 mph 16 mph NW 60 - 69 11/17/2017 12:05:00 PM
I-83 at MD-137 46 48 28 None 5 mph 12 mph S 64 - 64 11/17/2017 12:05:00 PM
I-95 at I-695 NE 48 43 26 None 7 mph 11 mph NW 59 - 68 11/17/2017 12:08:00 PM
I-95 at Patuxent River 48 43 27 None 5 mph 13 mph N 62 - 65 11/17/2017 12:05:00 PM
I-95 at Tydings Bridge 50 44 29 None Calm 14 mph W - 11/17/2017 12:05:00 PM
I-95/495 at I-295 54 38 30 None 7 mph 13 mph N 65 - 65 11/17/2017 12:05:00 PM
I-97 at MD-100 50 44 28 None 12 mph 20 mph NW 61 - 65 11/17/2017 12:05:00 PM
I-97 at MD-32 48 44 27 None 14 mph 20 mph N 61 - 67 11/17/2017 12:05:00 PM
MD 20 at MD 21 48 48 29 None 7 mph 13 mph NW 71 - 71 11/17/2017 12:05:00 PM
MD 231 at Patuxent River 50 45 30 None 9 mph 15 mph N 62 - 66 11/17/2017 12:05:00 PM
MD 260 at Cox Rd 53 42 31 None Calm 5 mph E 69 - 69 11/17/2017 12:05:00 PM
MD-135 at Salt Dome 37 72 29 None Calm 6 mph W 53 - 53 11/17/2017 12:05:00 PM
MD-140 at MD-97 44 50 27 None 9 mph 20 mph NW 60 - 60 11/17/2017 12:05:00 PM
MD-200 EB at Bonifant Rd 47 46 28 None 8 mph 16 mph NW 50 - 58 11/17/2017 12:08:00 PM
MD-200 WB at Muncaster Mill Rd 49 42 27 None 5 mph 12 mph NW 63 - 64 11/17/2017 12:08:00 PM
MD-213 at Sassafras River 47 53 31 None 7 mph 13 mph NW 65 - 65 11/17/2017 12:05:00 PM
MD-24 at Rock St Park 46 48 28 None 5 mph 9 mph N 49 - 49 11/17/2017 12:05:00 PM
MD-30 at PA Line 42 58 29 None 13 mph 21 mph NW 57 - 57 11/17/2017 12:05:00 PM
MD-301 at MD-305 46 49 28 None 14 mph 22 mph NW 67 - 68 11/17/2017 12:05:00 PM
MD-33 at Knapps Narrows Drawbridge 48 50 30 None 16 mph 21 mph NW 72 - 72 11/17/2017 12:05:00 PM
MD-344 at MD-224 49 45 29 None 5 mph 9 mph W 57 - 57 11/17/2017 12:05:00 PM
MD-4 at Patuxent River 52 48 33 None - - No Data Available 61 - 67 11/17/2017 12:05:00 PM
MD-404 at Choptank River 48 48 29 None 8 mph 17 mph N 65 - 68 11/17/2017 12:05:00 PM
MD-43 at MD-150 50 43 28 None Calm 11 mph N 64 - 68 11/17/2017 12:05:00 PM
MD-51 at Oldtown Salt Dome 49 45 28 None 7 mph 15 mph W 70 - 70 11/17/2017 12:05:00 PM
MD-64 at MD-418 45 51 28 None 11 mph 16 mph N 66 - 68 11/17/2017 12:05:00 PM
US 50 East past MD-347 - - - No Data Available - - No Data Available 50 - 50 11/17/2017 12:05:00 PM
US-1 at Baltimore / Harford Co. Line 49 44 28 None 4 mph 10 mph NW 62 - 63 11/17/2017 12:05:00 PM
US-1 at Conowingo Dam 51 44 30 None 6 mph 13 mph W 71 - 71 11/17/2017 12:05:00 PM
US-13 at US-113 50 49 32 None 10 mph 20 mph N 74 - 74 11/17/2017 12:05:00 PM
US-13 at US-50 - - - No Data Available - - No Data Available -
US-15 at MD-140 47 46 28 None 4 mph 12 mph W 56 - 62 11/17/2017 12:05:00 PM
US-301 at MD-5 51 43 29 None 4 mph 11 mph W 69 - 69 11/17/2017 12:05:00 PM
US-301 at Potomac 54 51 36 None 8 mph 12 mph N 64 - 66 11/17/2017 12:05:00 PM
US-301 on HWN Bridge 47 48 29 None - - No Data Available 57 - 57 11/17/2017 12:08:00 PM
US-340 at MD-180 46 48 28 None 12 mph 18 mph W 63 - 68 11/17/2017 12:05:00 PM
US-50 at Choptank 48 56 33 None 9 mph 14 mph NW 64 - 65 11/17/2017 12:05:00 PM
US-50 at I-95 51 41 28 None 6 mph 14 mph NW 53 - 63 11/17/2017 12:05:00 PM
US-50 at MD-2 49 43 28 None 7 mph 12 mph NW 48 - 63 11/17/2017 12:05:00 PM
US-50 at MD-331 49 50 31 None 11 mph 20 mph NW 64 - 69 11/17/2017 12:05:00 PM
US-50 at OC Drawbridge 49 46 30 None 12 mph 20 mph NW 72 - 72 11/17/2017 12:05:00 PM
US-50 at Table Rock Rd 35 76 29 None 5 mph 9 mph NW 57 - 57 11/17/2017 12:05:00 PM
US-50 Kent Narrow Bridge 49 53 32 None 11 mph 19 mph NW 61 - 65 11/17/2017 12:05:00 PM
WPL Pier 31 45 45 25 Rain 13 mph 20 mph NW 60 - 60 11/17/2017 12:08:00 PM
Location Air RH Dwp Precip Type Wind Speed Wind Gust Direction Pavement Temperature Date/Time